X  Zamknij Lotniskowe dane METAR     LGRX Patras Araxos Agamemnon Airport
Temperatura
59°F Temperatura
55°F Punkt rosy
88% Wilgotność



Wiatr
5 MPH
8 KM/H
2 M/S
4 KTS



60°
ENE
Warunki bieżące

Lekkie zachmurzenie Lekkie zachmurzenie
Ciśnienie 1016.92 (hPa) - 30.03 (inHg)
Widoczność 6.2 (mil) - 10 (km)
Lotnisko
Kod lotniska LGRX

Położenie: Patras Araxos Agamemnon Airport
Odległość: 108 (mi)

Metar:
LGRX 082150Z 06004KT 9999 SCT080 15/13 Q1017

Czas: 08-12-2022 23:50 EET